Time;durP1;ratioP1;P1;durP2;ratioP2;P2;SDS_P1;SDS_P2;PMS_P1;PMS_P2;Temp;Humidity;BMP_temperature;BMP_pressure;BME280_temperature;BME280_humidity;BME280_pressure;Samples;Min_cycle;Max_cycle;Signal;HPM_P1;HPM_P2
2021/05/04 00:01:31;;;;;;;0.87;0.70;;;21.60;45.40;;;;;;10336721;28;20198;-16
2021/05/04 00:06:53;;;;;;;1.20;1.10;;;21.60;45.40;;;;;;10341266;28;20223;-13
2021/05/04 00:12:15;;;;;;;1.03;0.93;;;21.50;45.50;;;;;;10343049;28;20210;-13
2021/05/04 00:17:37;;;;;;;0.80;0.80;;;21.50;45.50;;;;;;10341761;28;20215;-14
2021/05/04 00:22:59;;;;;;;0.80;0.80;;;21.60;45.30;;;;;;10341201;28;20191;-14
2021/05/04 00:28:21;;;;;;;1.33;0.90;;;21.70;45.10;;;;;;10341521;28;20215;-13
2021/05/04 00:33:42;;;;;;;1.63;1.00;;;21.50;45.20;;;;;;10339739;28;20215;-17
2021/05/04 00:39:05;;;;;;;1.00;0.90;;;21.60;45.30;;;;;;10332453;28;20230;-15
2021/05/04 00:44:27;;;;;;;1.00;0.90;;;21.60;45.30;;;;;;10325600;28;20210;-13
2021/05/04 00:49:49;;;;;;;1.30;0.90;;;21.50;45.30;;;;;;10331943;28;20237;-14
2021/05/04 00:55:12;;;;;;;1.00;0.90;;;21.60;45.10;;;;;;10333164;28;20272;-14
2021/05/04 01:00:33;;;;;;;1.13;1.00;;;21.60;45.00;;;;;;10334531;28;20215;-16
2021/05/04 01:05:55;;;;;;;1.07;0.90;;;21.60;45.20;;;;;;10335452;28;20261;-15
2021/05/04 01:11:18;;;;;;;1.20;0.80;;;21.60;44.90;;;;;;10338151;28;20250;-15
2021/05/04 01:16:42;;;;;;;0.80;0.80;;;21.60;45.00;;;;;;10346350;28;20229;-15
2021/05/04 01:22:04;;;;;;;1.60;0.80;;;21.60;45.00;;;;;;10345093;28;20662;-17
2021/05/04 01:27:26;;;;;;;1.17;0.80;;;21.60;45.20;;;;;;10343270;28;20274;-14
2021/05/04 01:32:48;;;;;;;0.60;0.60;;;21.60;45.00;;;;;;10341936;28;20218;-15
2021/05/04 01:38:10;;;;;;;0.70;0.70;;;21.60;45.00;;;;;;10361467;28;20244;-15
2021/05/04 01:43:32;;;;;;;0.80;0.60;;;21.60;45.10;;;;;;10370398;28;20190;-14
2021/05/04 01:48:53;;;;;;;2.27;0.90;;;21.50;45.20;;;;;;10387636;28;20218;-14
2021/05/04 01:54:16;;;;;;;0.60;0.60;;;21.50;45.20;;;;;;10386988;28;20697;-14
2021/05/04 01:59:37;;;;;;;0.80;0.70;;;21.50;45.00;;;;;;10307080;28;20207;-13
2021/05/04 02:04:59;;;;;;;0.53;0.53;;;21.60;45.40;;;;;;10307012;28;20218;-15
2021/05/04 02:10:21;;;;;;;0.70;0.70;;;21.60;44.70;;;;;;10305928;28;20224;-14
2021/05/04 02:15:43;;;;;;;0.70;0.70;;;21.60;44.80;;;;;;10337711;28;20207;-15
2021/05/04 02:21:05;;;;;;;0.50;0.50;;;21.50;44.90;;;;;;10346056;28;20199;-15
2021/05/04 02:26:27;;;;;;;0.93;0.70;;;21.60;44.90;;;;;;10345710;28;20219;-14
2021/05/04 02:31:49;;;;;;;0.60;0.60;;;21.50;45.00;;;;;;10344739;28;20373;-16
2021/05/04 02:37:10;;;;;;;0.60;0.60;;;21.40;45.10;;;;;;10337825;28;20231;-14
2021/05/04 02:42:33;;;;;;;1.47;0.80;;;21.50;44.80;;;;;;10344996;28;20199;-14
2021/05/04 02:47:54;;;;;;;0.50;0.50;;;21.60;44.90;;;;;;10342319;28;20223;-16
2021/05/04 02:53:16;;;;;;;0.70;0.70;;;21.60;44.80;;;;;;10337833;28;20243;-14
2021/05/04 02:58:38;;;;;;;0.83;0.73;;;21.60;44.80;;;;;;10337382;28;20226;-14
2021/05/04 03:04:00;;;;;;;0.53;0.50;;;21.50;44.80;;;;;;10338013;28;20207;-15
2021/05/04 03:09:22;;;;;;;0.60;0.60;;;21.50;45.00;;;;;;10338436;28;20222;-16
2021/05/04 03:14:44;;;;;;;0.70;0.63;;;21.40;45.00;;;;;;10344563;28;20269;-14
2021/05/04 03:20:07;;;;;;;0.47;0.47;;;21.40;45.00;;;;;;10343185;28;20218;-14
2021/05/04 03:25:29;;;;;;;0.67;0.60;;;21.50;44.90;;;;;;10344095;28;20583;-14
2021/05/04 03:30:51;;;;;;;1.13;0.80;;;21.50;44.60;;;;;;10344524;28;20583;-14
2021/05/04 03:36:14;;;;;;;0.60;0.60;;;21.50;44.80;;;;;;10339317;28;20609;-14
2021/05/04 03:41:36;;;;;;;0.60;0.60;;;21.50;44.70;;;;;;10419696;23;20243;-14
2021/05/04 03:46:58;;;;;;;0.97;0.60;;;21.60;44.70;;;;;;10316688;28;20198;-15
2021/05/04 03:52:20;;;;;;;0.93;0.63;;;21.70;44.50;;;;;;10290528;28;20231;-14
2021/05/04 03:57:42;;;;;;;0.60;0.60;;;21.60;44.50;;;;;;10289533;28;20223;-15
2021/05/04 04:03:04;;;;;;;0.77;0.70;;;21.60;44.40;;;;;;10290296;28;20270;-15
2021/05/04 04:08:26;;;;;;;0.90;0.70;;;21.70;44.50;;;;;;10288701;28;20223;-14
2021/05/04 04:13:47;;;;;;;0.73;0.73;;;21.70;44.30;;;;;;10290537;28;20251;-14
2021/05/04 04:19:10;;;;;;;0.90;0.60;;;21.70;44.50;;;;;;10290825;28;20219;-15
2021/05/04 04:24:31;;;;;;;0.63;0.60;;;21.60;44.40;;;;;;10290372;28;20218;-15
2021/05/04 04:29:53;;;;;;;0.50;0.50;;;21.70;44.50;;;;;;10289863;28;20230;-14
2021/05/04 04:35:16;;;;;;;0.97;0.57;;;21.70;44.50;;;;;;10289467;28;20206;-15
2021/05/04 04:40:37;;;;;;;0.60;0.57;;;21.80;44.30;;;;;;10289707;28;20251;-15
2021/05/04 04:45:59;;;;;;;0.63;0.60;;;21.80;44.30;;;;;;10288866;28;20207;-14
2021/05/04 04:51:21;;;;;;;0.50;0.50;;;21.70;44.50;;;;;;10289070;28;20227;-14
2021/05/04 04:56:43;;;;;;;0.40;0.40;;;21.70;44.60;;;;;;10289046;28;20199;-16
2021/05/04 05:02:04;;;;;;;0.90;0.40;;;21.70;44.50;;;;;;10288800;28;20196;-14
2021/05/04 05:07:27;;;;;;;1.03;0.60;;;21.70;44.60;;;;;;10288791;28;20219;-15
2021/05/04 05:12:48;;;;;;;0.50;0.50;;;21.80;44.60;;;;;;10287829;28;20259;-15
2021/05/04 05:18:10;;;;;;;1.73;0.73;;;21.80;44.50;;;;;;10288676;28;20692;-15
2021/05/04 05:23:33;;;;;;;0.60;0.60;;;21.70;44.50;;;;;;10287836;28;20211;-15
2021/05/04 05:28:55;;;;;;;0.70;0.50;;;21.80;44.50;;;;;;10269604;28;20278;-15
2021/05/04 05:34:17;;;;;;;1.10;0.50;;;21.80;44.60;;;;;;10287479;28;20611;-15
2021/05/04 05:39:42;;;;;;;0.57;0.40;;;21.90;44.60;;;;;;10286803;28;20242;-15
2021/05/04 05:45:05;;;;;;;1.70;0.60;;;21.90;44.60;;;;;;10288139;28;20690;-14
2021/05/04 05:50:27;;;;;;;1.90;0.87;;;21.90;44.60;;;;;;10247377;28;20239;-13
2021/05/04 05:55:49;;;;;;;2.10;1.40;;;21.70;42.70;;;;;;10260383;28;20208;-12
2021/05/04 06:01:11;;;;;;;4.23;1.80;;;21.00;42.20;;;;;;10291863;28;20227;-14
2021/05/04 06:06:33;;;;;;;3.20;1.77;;;20.20;43.70;;;;;;10293081;28;20200;-15
2021/05/04 06:11:56;;;;;;;3.60;1.30;;;19.80;44.60;;;;;;10291870;28;20226;-14
2021/05/04 06:17:17;;;;;;;3.27;1.37;;;19.50;45.70;;;;;;10292851;28;20699;-15
2021/05/04 06:22:39;;;;;;;1.60;1.10;;;19.50;46.30;;;;;;10286196;28;20204;-15
2021/05/04 06:28:04;;;;;;;1.40;1.30;;;19.80;45.90;;;;;;10275483;28;20282;-13
2021/05/04 06:33:26;;;;;;;3.97;1.23;;;19.90;45.60;;;;;;10287426;28;20703;-13
2021/05/04 06:38:47;;;;;;;2.43;1.30;;;19.80;45.50;;;;;;10284420;28;20231;-13
2021/05/04 06:44:10;;;;;;;1.67;1.10;;;19.80;45.30;;;;;;10287283;28;20202;-14
2021/05/04 06:49:32;;;;;;;4.33;1.20;;;19.80;45.30;;;;;;10284645;28;20219;-14
2021/05/04 06:54:53;;;;;;;4.07;1.10;;;19.70;45.60;;;;;;10286305;28;20795;-14
2021/05/04 07:00:16;;;;;;;1.00;0.90;;;19.70;45.40;;;;;;10286000;28;20223;-13
2021/05/04 07:05:39;;;;;;;1.53;1.10;;;19.70;45.60;;;;;;10284398;28;20207;-15
2021/05/04 07:11:00;;;;;;;0.83;0.83;;;19.70;45.60;;;;;;10284734;28;20224;-14
2021/05/04 07:16:23;;;;;;;1.13;1.00;;;19.60;45.40;;;;;;10284690;28;20603;-14
2021/05/04 07:21:44;;;;;;;7.07;1.20;;;19.50;45.50;;;;;;10283656;28;20216;-14
2021/05/04 07:27:07;;;;;;;1.00;0.80;;;19.60;45.70;;;;;;10291834;28;20203;-13
2021/05/04 07:32:29;;;;;;;0.90;0.80;;;19.40;46.50;;;;;;10284843;28;20348;-13
2021/05/04 07:37:51;;;;;;;0.70;0.63;;;19.40;47.10;;;;;;10285111;28;20238;-12
2021/05/04 07:43:13;;;;;;;1.00;0.80;;;19.30;47.40;;;;;;10285063;28;20198;-13
2021/05/04 07:48:35;;;;;;;1.27;0.90;;;19.30;47.10;;;;;;10284227;28;20628;-11
2021/05/04 07:53:57;;;;;;;1.60;1.00;;;19.40;47.10;;;;;;10282957;28;20266;-15
2021/05/04 07:59:18;;;;;;;1.87;0.90;;;19.40;47.10;;;;;;10248587;28;20661;-13
2021/05/04 08:04:41;;;;;;;2.13;0.90;;;19.40;47.10;;;;;;10278541;28;20575;-15
2021/05/04 08:10:03;;;;;;;1.33;0.83;;;19.40;47.10;;;;;;10261518;28;20615;-14
2021/05/04 08:15:24;;;;;;;1.60;1.00;;;19.40;46.60;;;;;;10245144;28;20210;-14
2021/05/04 08:20:49;;;;;;;0.70;0.70;;;19.50;46.60;;;;;;10274130;28;20215;-13
2021/05/04 08:26:10;;;;;;;1.90;0.93;;;19.50;46.30;;;;;;10282927;28;20699;-15
2021/05/04 08:31:33;;;;;;;1.20;0.80;;;19.50;46.10;;;;;;10282428;28;20265;-14
2021/05/04 08:36:56;;;;;;;1.20;1.07;;;19.50;46.10;;;;;;10281176;28;20204;-14
2021/05/04 08:42:18;;;;;;;1.13;0.83;;;19.50;46.40;;;;;;10264314;28;20675;-14
2021/05/04 08:47:40;;;;;;;1.13;0.90;;;19.40;46.70;;;;;;10283004;28;20235;-15
2021/05/04 08:53:03;;;;;;;0.80;0.80;;;19.50;46.60;;;;;;10281944;28;20691;-14
2021/05/04 08:58:26;;;;;;;1.50;0.70;;;19.50;46.40;;;;;;10281079;28;20223;-13
2021/05/04 09:03:50;;;;;;;0.63;0.60;;;19.40;46.20;;;;;;10282446;28;20702;-13
2021/05/04 09:09:20;;;;;;;0.70;0.70;;;19.40;46.20;;;;;;10284109;28;20639;-15
2021/05/04 09:14:47;;;;;;;1.00;0.90;;;19.40;46.10;;;;;;10258991;28;20212;-15
2021/05/04 09:20:22;;;;;;;2.67;0.90;;;19.40;46.10;;;;;;10271247;28;20654;-13
2021/05/04 09:25:45;;;;;;;1.43;0.90;;;19.40;46.30;;;;;;10255170;28;20575;-14
2021/05/04 09:31:06;;;;;;;3.23;0.80;;;19.30;46.40;;;;;;10285738;28;20223;-14
2021/05/04 09:36:41;;;;;;;1.53;0.67;;;19.30;46.60;;;;;;10294335;28;20203;-15
2021/05/04 09:42:11;;;;;;;1.77;0.63;;;19.30;46.50;;;;;;10399492;23;20265;-15
2021/05/04 09:47:33;;;;;;;0.70;0.63;;;19.20;46.70;;;;;;10325741;28;20280;-16
2021/05/04 09:53:06;;;;;;;2.23;0.90;;;19.10;46.70;;;;;;10301065;28;20224;-14
2021/05/04 09:58:33;;;;;;;2.07;0.80;;;19.10;47.20;;;;;;10329069;28;20739;-16
2021/05/04 10:03:54;;;;;;;3.60;0.83;;;19.10;47.40;;;;;;10334653;28;20195;-13
2021/05/04 10:09:17;;;;;;;1.10;0.80;;;19.10;47.40;;;;;;10333736;28;20709;-16
2021/05/04 10:14:41;;;;;;;1.17;0.80;;;19.20;47.20;;;;;;10307785;28;20207;-12
2021/05/04 10:20:06;;;;;;;1.50;0.90;;;19.20;46.80;;;;;;10320255;28;20706;-15
2021/05/04 10:25:28;;;;;;;2.13;0.63;;;19.30;46.50;;;;;;10293155;28;20204;-14
2021/05/04 10:30:50;;;;;;;2.60;0.77;;;19.30;46.20;;;;;;10315946;28;20225;-14
2021/05/04 10:36:33;;;;;;;2.17;0.70;;;19.40;46.20;;;;;;10326950;28;20196;-13
2021/05/04 10:41:58;;;;;;;1.27;0.70;;;19.40;46.10;;;;;;10333073;28;20243;-15
2021/05/04 10:47:46;;;;;;;0.30;0.30;;;19.40;46.40;;;;;;10333647;28;20233;-15
2021/05/04 10:53:08;;;;;;;2.00;0.40;;;19.40;47.10;;;;;;10335312;28;20572;-13
2021/05/04 10:58:42;;;;;;;0.60;0.50;;;19.50;47.30;;;;;;10331900;28;20298;-15
2021/05/04 11:04:06;;;;;;;1.57;0.70;;;19.50;47.40;;;;;;10295420;28;20584;-15
2021/05/04 11:09:28;;;;;;;0.70;0.40;;;19.60;47.90;;;;;;10295274;28;20227;-14
2021/05/04 11:14:49;;;;;;;0.90;0.50;;;19.70;47.80;;;;;;10332094;28;20195;-14
2021/05/04 11:20:35;;;;;;;1.33;0.40;;;20.00;47.30;;;;;;10327642;28;20230;-15
2021/05/04 11:25:57;;;;;;;1.70;0.40;;;20.40;46.80;;;;;;10331673;28;20191;-13
2021/05/04 11:31:37;;;;;;;1.30;0.53;;;20.60;46.50;;;;;;10291029;28;20696;-14
2021/05/04 11:37:00;;;;;;;1.47;0.57;;;20.70;46.20;;;;;;10329719;28;20207;-16
2021/05/04 11:42:29;;;;;;;1.00;0.50;;;20.90;46.00;;;;;;10328774;28;20230;-12
2021/05/04 11:47:53;;;;;;;0.40;0.40;;;20.90;46.30;;;;;;10329217;28;20670;-14
2021/05/04 11:53:17;;;;;;;0.77;0.40;;;20.70;46.40;;;;;;10330884;28;20219;-15
2021/05/04 11:58:38;;;;;;;1.43;1.07;;;20.60;46.60;;;;;;10329706;28;20219;-13
2021/05/04 12:04:00;;;;;;;16.63;11.80;;;20.60;46.80;;;;;;10346232;28;20222;-13
2021/05/04 12:09:22;;;;;;;55.03;38.93;;;20.60;46.50;;;;;;10349919;28;20237;-15
2021/05/04 12:14:56;;;;;;;87.30;56.43;;;20.80;46.60;;;;;;10329369;28;20218;-13
2021/05/04 12:20:19;;;;;;;112.43;78.93;;;21.00;46.30;;;;;;10328721;28;20230;-13
2021/05/04 12:25:49;;;;;;;138.27;95.13;;;21.10;46.20;;;;;;10330020;28;20214;-14
2021/05/04 12:31:13;;;;;;;142.83;101.07;;;21.20;45.90;;;;;;10328690;28;20326;-16
2021/05/04 12:36:37;;;;;;;149.10;106.13;;;21.30;45.90;;;;;;10327497;28;20199;-13
2021/05/04 12:42:02;;;;;;;156.37;110.13;;;21.30;45.80;;;;;;10327555;28;20227;-13
2021/05/04 12:47:25;;;;;;;152.40;107.13;;;21.40;45.80;;;;;;10326679;28;20698;-14
2021/05/04 12:52:47;;;;;;;155.57;108.20;;;21.40;45.90;;;;;;10327732;28;20891;-16
2021/05/04 12:58:12;;;;;;;152.47;107.80;;;21.40;46.00;;;;;;10327654;28;20199;-15
2021/05/04 13:03:48;;;;;;;146.30;103.00;;;21.40;45.90;;;;;;10286966;28;20195;-13
2021/05/04 13:09:22;;;;;;;131.93;94.60;;;21.40;45.70;;;;;;10304050;28;20301;-14
2021/05/04 13:15:02;;;;;;;137.10;96.03;;;21.50;46.00;;;;;;10333542;28;20225;-14
2021/05/04 13:31:50;;;;;;;124.87;87.80;;;21.00;46.80;;;;;;10310318;28;20230;-13
2021/05/04 13:37:13;;;;;;;117.00;85.43;;;21.10;46.60;;;;;;10333393;28;20203;-14
2021/05/04 13:48:19;;;;;;;106.63;75.23;;;21.10;47.20;;;;;;10334225;28;20222;-13
2021/05/04 13:53:41;;;;;;;104.83;73.87;;;21.20;47.20;;;;;;10333865;28;20649;-12
2021/05/04 13:59:02;;;;;;;90.93;64.90;;;21.10;47.20;;;;;;10333069;28;20218;-12
2021/05/04 14:04:33;;;;;;;86.17;61.03;;;21.00;47.10;;;;;;10333472;28;20671;-15
2021/05/04 14:26:57;;;;;;;42.27;29.33;;;20.90;47.30;;;;;;10325089;28;20250;-15
2021/05/04 14:32:19;;;;;;;29.13;19.47;;;20.80;45.40;;;;;;10321180;28;20231;-15
2021/05/04 14:37:47;;;;;;;29.20;19.53;;;20.60;44.20;;;;;;10292620;28;20212;-12
2021/05/04 14:43:34;;;;;;;29.00;19.03;;;20.70;45.60;;;;;;10294781;28;20717;-16
2021/05/04 15:00:34;;;;;;;27.40;18.27;;;20.60;46.90;;;;;;10333142;28;20266;-14
2021/05/04 15:05:56;;;;;;;28.07;18.57;;;20.70;47.20;;;;;;10332110;28;20210;-12
2021/05/04 15:11:18;;;;;;;26.73;16.90;;;20.70;47.20;;;;;;10329091;28;20258;-15
2021/05/04 15:16:45;;;;;;;25.73;15.70;;;20.70;47.20;;;;;;10334121;28;20290;-15
2021/05/04 15:22:08;;;;;;;21.13;15.00;;;20.70;47.40;;;;;;10331118;28;20207;-14
2021/05/04 15:27:31;;;;;;;21.03;14.87;;;20.70;47.50;;;;;;10331623;28;20202;-12
2021/05/04 15:32:58;;;;;;;21.60;14.67;;;20.70;47.40;;;;;;10329738;28;20273;-16
2021/05/04 15:38:20;;;;;;;21.83;13.93;;;20.70;47.60;;;;;;10289168;28;20270;-16
2021/05/04 15:43:48;;;;;;;20.67;13.43;;;20.60;47.90;;;;;;10253422;29;20188;-14
2021/05/04 15:49:18;;;;;;;18.07;12.37;;;20.60;48.00;;;;;;10289997;28;20219;-13
2021/05/04 15:55:13;;;;;;;17.30;10.77;;;20.60;48.00;;;;;;10289515;28;20216;-13
2021/05/04 16:06:28;;;;;;;13.13;9.67;;;20.60;48.20;;;;;;10289414;28;20283;-13
2021/05/04 16:11:50;;;;;;;14.13;10.53;;;20.60;48.80;;;;;;10288943;28;20299;-12
2021/05/04 16:17:12;;;;;;;14.13;9.70;;;20.70;48.10;;;;;;10288729;28;20192;-13
2021/05/04 16:22:37;;;;;;;13.13;9.30;;;20.80;48.10;;;;;;10289362;28;20290;-14
2021/05/04 16:28:03;;;;;;;12.20;8.93;;;20.90;47.70;;;;;;10276219;28;20203;-14
2021/05/04 16:33:26;;;;;;;12.80;8.70;;;21.00;47.50;;;;;;10288726;28;20212;-14
2021/05/04 16:38:47;;;;;;;13.77;8.83;;;21.00;47.20;;;;;;10288089;28;20242;-16
2021/05/04 16:44:09;;;;;;;13.30;8.27;;;21.10;47.10;;;;;;10328015;28;20679;-16
2021/05/04 16:49:37;;;;;;;10.73;7.97;;;21.20;47.50;;;;;;10326913;28;20215;-16
2021/05/04 16:54:58;;;;;;;10.00;7.00;;;21.20;46.80;;;;;;10327910;28;20223;-16
2021/05/04 17:00:24;;;;;;;9.03;6.73;;;21.20;47.00;;;;;;10328689;28;20713;-13
2021/05/04 17:05:54;;;;;;;10.20;6.47;;;21.20;46.80;;;;;;10327525;28;20199;-15
2021/05/04 17:11:15;;;;;;;8.50;6.00;;;21.10;47.20;;;;;;10327354;28;20211;-13
2021/05/04 17:16:38;;;;;;;7.93;5.47;;;20.90;47.50;;;;;;10328239;28;20671;-14
2021/05/04 17:22:02;;;;;;;7.13;5.47;;;20.90;47.70;;;;;;10325803;28;20219;-15
2021/05/04 17:27:24;;;;;;;7.40;5.23;;;21.00;47.70;;;;;;10319122;28;20203;-16
2021/05/04 17:32:45;;;;;;;5.73;4.70;;;21.10;47.90;;;;;;10328121;28;20733;-13
2021/05/04 17:38:09;;;;;;;6.67;4.40;;;21.20;48.10;;;;;;10328328;28;20203;-14
2021/05/04 17:43:30;;;;;;;7.07;5.00;;;21.30;48.20;;;;;;10292020;28;20227;-15
2021/05/04 17:48:52;;;;;;;6.53;4.53;;;21.30;48.20;;;;;;10307311;28;20595;-16
2021/05/04 17:54:16;;;;;;;7.03;4.67;;;21.30;48.30;;;;;;10330607;28;20707;-13
2021/05/04 17:59:38;;;;;;;7.40;4.50;;;21.30;48.40;;;;;;10305880;28;20215;-14
2021/05/04 18:04:59;;;;;;;6.83;4.90;;;21.30;48.50;;;;;;10333842;28;20274;-16
2021/05/04 18:10:22;;;;;;;6.67;5.07;;;21.30;48.50;;;;;;10330546;28;20229;-13
2021/05/04 18:21:23;;;;;;;5.20;4.10;;;21.30;48.60;;;;;;10323361;28;20211;-16
2021/05/04 18:26:47;;;;;;;6.80;4.97;;;21.30;48.70;;;;;;10302400;28;20202;-14
2021/05/04 18:32:12;;;;;;;10.00;5.23;;;21.10;48.50;;;;;;10291917;28;20282;-15
2021/05/04 18:37:50;;;;;;;9.00;5.13;;;21.10;48.50;;;;;;10329830;28;20198;-14
2021/05/04 19:28:35;;;;;;;14.33;7.03;;;20.90;48.50;;;;;;10312945;28;20218;-13
2021/05/04 19:41:47;;;;;;;10.63;6.57;;;20.90;48.90;;;;;;10290218;28;20291;-15
2021/05/04 19:52:15;;;;;;;12.23;6.97;;;20.80;48.50;;;;;;10305184;28;20306;-17
2021/05/04 20:14:29;;;;;;;10.63;6.00;;;20.70;48.80;;;;;;10288513;28;20332;-14
2021/05/04 20:19:51;;;;;;;9.67;5.83;;;20.70;48.80;;;;;;10314566;28;20226;-14
2021/05/04 20:25:15;;;;;;;15.10;6.07;;;20.70;48.80;;;;;;10330643;28;20191;-17
2021/05/04 20:30:37;;;;;;;10.97;5.93;;;20.60;48.80;;;;;;10330529;28;20242;-14
2021/05/04 20:36:01;;;;;;;10.67;5.70;;;20.60;48.80;;;;;;10329994;28;20207;-16
2021/05/04 20:41:23;;;;;;;9.80;5.27;;;20.60;48.90;;;;;;10329581;28;20231;-15
2021/05/04 20:46:48;;;;;;;10.67;5.30;;;20.70;48.90;;;;;;10328712;28;20199;-18
2021/05/04 20:52:10;;;;;;;8.23;5.33;;;20.60;48.40;;;;;;10297602;28;20301;-17
2021/05/04 20:57:32;;;;;;;8.00;4.27;;;20.60;48.90;;;;;;10330003;28;20559;-16
2021/05/04 21:02:54;;;;;;;7.93;4.57;;;20.60;48.90;;;;;;10328832;28;20582;-13
2021/05/04 21:08:16;;;;;;;6.73;4.33;;;20.60;48.60;;;;;;10329301;28;20191;-16
2021/05/04 21:13:38;;;;;;;8.93;4.40;;;20.60;48.60;;;;;;10329129;28;20222;-17
2021/05/04 21:19:03;;;;;;;9.87;4.50;;;20.60;49.00;;;;;;10325429;28;20219;-14
2021/05/04 21:24:27;;;;;;;7.33;4.37;;;20.60;49.00;;;;;;10289443;28;20192;-13
2021/05/04 21:29:50;;;;;;;8.00;4.23;;;20.60;48.90;;;;;;10293142;28;20273;-15
2021/05/04 21:35:15;;;;;;;7.50;4.37;;;20.60;48.90;;;;;;10335948;28;20218;-15
2021/05/04 21:40:37;;;;;;;7.93;3.93;;;20.60;48.70;;;;;;10335552;28;20218;-14
2021/05/04 21:45:59;;;;;;;7.30;3.60;;;20.70;48.60;;;;;;10337603;28;20222;-15
2021/05/04 21:51:21;;;;;;;5.23;3.67;;;20.60;48.50;;;;;;10335803;28;20642;-12
2021/05/04 21:56:43;;;;;;;7.03;3.60;;;20.60;48.60;;;;;;10337576;28;20206;-13
2021/05/04 22:02:06;;;;;;;5.10;3.37;;;20.60;48.20;;;;;;10334173;28;20222;-15
2021/05/04 22:07:28;;;;;;;5.07;3.37;;;20.60;48.00;;;;;;10335489;28;20227;-14
2021/05/04 22:12:55;;;;;;;4.57;3.23;;;20.60;48.10;;;;;;10334957;28;20254;-13
2021/05/04 22:18:51;;;;;;;5.30;3.30;;;20.60;48.50;;;;;;10335451;28;20230;-15
2021/05/04 22:29:56;;;;;;;5.93;3.17;;;20.60;48.40;;;;;;10294381;28;20204;-13
2021/05/04 22:35:19;;;;;;;6.37;3.30;;;20.60;48.50;;;;;;10293794;28;20212;-14
2021/05/04 22:40:43;;;;;;;3.80;2.60;;;20.50;48.40;;;;;;10291653;28;20227;-12
2021/05/04 22:46:24;;;;;;;5.07;2.97;;;20.50;48.60;;;;;;10293522;28;20200;-15
2021/05/04 23:20:11;;;;;;;3.30;2.07;;;20.50;48.30;;;;;;10272040;28;20220;-16
2021/05/04 23:25:34;;;;;;;3.50;2.60;;;20.50;48.10;;;;;;10292883;28;20287;-14
2021/05/04 23:30:55;;;;;;;3.67;1.77;;;20.50;48.40;;;;;;10291679;28;20854;-14
2021/05/04 23:36:17;;;;;;;3.20;2.03;;;20.50;48.40;;;;;;10311706;28;20737;-16
2021/05/04 23:41:39;;;;;;;4.00;2.27;;;20.50;48.10;;;;;;10331463;28;20230;-14
2021/05/04 23:47:01;;;;;;;2.87;2.00;;;20.50;48.40;;;;;;10331447;28;20199;-13
2021/05/04 23:52:23;;;;;;;3.97;1.87;;;20.50;48.20;;;;;;10331009;28;20367;-13
2021/05/04 23:57:46;;;;;;;2.70;1.73;;;20.50;47.90;;;;;;10330664;28;20694;-12
